sensor_id;sensor_type;location;lat;lon;timestamp;P1;durP1;ratioP1;P2;durP2;ratioP2
14760;SDS011;7472;45.396;5.272;2023-11-18T00:00:00;3.63;;;2.20;;
14760;SDS011;7472;45.396;5.272;2023-11-18T00:02:36;3.67;;;2.05;;
14760;SDS011;7472;45.396;5.272;2023-11-18T00:05:03;3.95;;;2.30;;
14760;SDS011;7472;45.396;5.272;2023-11-18T00:07:32;2.80;;;2.00;;
14760;SDS011;7472;45.396;5.272;2023-11-18T00:09:59;2.75;;;2.25;;
14760;SDS011;7472;45.396;5.272;2023-11-18T00:12:27;2.08;;;1.80;;
14760;SDS011;7472;45.396;5.272;2023-11-18T00:14:55;3.10;;;2.25;;
14760;SDS011;7472;45.396;5.272;2023-11-18T00:17:23;3.38;;;2.13;;
14760;SDS011;7472;45.396;5.272;2023-11-18T00:19:50;3.38;;;2.83;;
14760;SDS011;7472;45.396;5.272;2023-11-18T00:22:18;5.57;;;2.67;;
14760;SDS011;7472;45.396;5.272;2023-11-18T00:24:46;2.92;;;2.40;;
14760;SDS011;7472;45.396;5.272;2023-11-18T00:27:13;3.72;;;2.50;;
14760;SDS011;7472;45.396;5.272;2023-11-18T00:29:40;3.83;;;2.65;;
14760;SDS011;7472;45.396;5.272;2023-11-18T00:32:10;3.00;;;2.08;;
14760;SDS011;7472;45.396;5.272;2023-11-18T00:34:37;2.50;;;1.65;;
14760;SDS011;7472;45.396;5.272;2023-11-18T00:37:05;3.55;;;2.50;;
14760;SDS011;7472;45.396;5.272;2023-11-18T00:39:33;4.32;;;2.10;;
14760;SDS011;7472;45.396;5.272;2023-11-18T00:42:00;2.25;;;1.85;;
14760;SDS011;7472;45.396;5.272;2023-11-18T00:44:27;3.85;;;2.33;;
14760;SDS011;7472;45.396;5.272;2023-11-18T00:46:55;3.10;;;2.25;;
14760;SDS011;7472;45.396;5.272;2023-11-18T00:49:24;2.85;;;2.25;;
14760;SDS011;7472;45.396;5.272;2023-11-18T00:51:51;2.25;;;1.80;;
14760;SDS011;7472;45.396;5.272;2023-11-18T00:54:18;2.45;;;1.63;;
14760;SDS011;7472;45.396;5.272;2023-11-18T00:56:46;1.63;;;1.48;;
14760;SDS011;7472;45.396;5.272;2023-11-18T00:59:13;2.88;;;2.05;;
14760;SDS011;7472;45.396;5.272;2023-11-18T01:01:40;2.03;;;1.83;;
14760;SDS011;7472;45.396;5.272;2023-11-18T01:04:08;2.95;;;1.95;;
14760;SDS011;7472;45.396;5.272;2023-11-18T01:06:37;4.50;;;2.20;;
14760;SDS011;7472;45.396;5.272;2023-11-18T01:09:04;3.92;;;1.92;;
14760;SDS011;7472;45.396;5.272;2023-11-18T01:11:34;2.13;;;1.83;;
14760;SDS011;7472;45.396;5.272;2023-11-18T01:14:02;2.47;;;1.73;;
14760;SDS011;7472;45.396;5.272;2023-11-18T01:16:29;2.28;;;2.08;;
14760;SDS011;7472;45.396;5.272;2023-11-18T01:18:56;2.17;;;1.98;;
14760;SDS011;7472;45.396;5.272;2023-11-18T01:21:24;1.88;;;1.65;;
14760;SDS011;7472;45.396;5.272;2023-11-18T01:23:54;5.95;;;2.33;;
14760;SDS011;7472;45.396;5.272;2023-11-18T01:26:21;4.68;;;2.80;;
14760;SDS011;7472;45.396;5.272;2023-11-18T01:28:48;2.78;;;2.20;;
14760;SDS011;7472;45.396;5.272;2023-11-18T01:31:16;4.65;;;2.28;;
14760;SDS011;7472;45.396;5.272;2023-11-18T01:33:43;5.45;;;2.55;;
14760;SDS011;7472;45.396;5.272;2023-11-18T01:36:12;3.22;;;2.35;;
14760;SDS011;7472;45.396;5.272;2023-11-18T01:38:39;2.30;;;2.10;;
14760;SDS011;7472;45.396;5.272;2023-11-18T01:41:08;2.95;;;2.40;;
14760;SDS011;7472;45.396;5.272;2023-11-18T01:43:35;2.33;;;2.13;;
14760;SDS011;7472;45.396;5.272;2023-11-18T01:46:03;3.15;;;2.38;;
14760;SDS011;7472;45.396;5.272;2023-11-18T01:48:32;7.25;;;2.08;;
14760;SDS011;7472;45.396;5.272;2023-11-18T01:51:00;2.50;;;2.30;;
14760;SDS011;7472;45.396;5.272;2023-11-18T01:53:28;3.35;;;2.25;;
14760;SDS011;7472;45.396;5.272;2023-11-18T01:55:56;2.47;;;2.20;;
14760;SDS011;7472;45.396;5.272;2023-11-18T01:58:25;5.38;;;2.00;;
14760;SDS011;7472;45.396;5.272;2023-11-18T02:00:54;4.57;;;1.63;;
14760;SDS011;7472;45.396;5.272;2023-11-18T02:03:22;1.67;;;1.52;;
14760;SDS011;7472;45.396;5.272;2023-11-18T02:05:52;5.43;;;2.08;;
14760;SDS011;7472;45.396;5.272;2023-11-18T02:08:19;2.92;;;1.98;;
14760;SDS011;7472;45.396;5.272;2023-11-18T02:10:47;3.03;;;2.10;;
14760;SDS011;7472;45.396;5.272;2023-11-18T02:13:19;3.05;;;1.90;;
14760;SDS011;7472;45.396;5.272;2023-11-18T02:15:51;4.30;;;2.67;;
14760;SDS011;7472;45.396;5.272;2023-11-18T02:18:19;2.65;;;2.28;;
14760;SDS011;7472;45.396;5.272;2023-11-18T02:20:47;3.28;;;2.38;;
14760;SDS011;7472;45.396;5.272;2023-11-18T02:23:15;6.53;;;2.85;;
14760;SDS011;7472;45.396;5.272;2023-11-18T02:25:45;7.00;;;3.15;;
14760;SDS011;7472;45.396;5.272;2023-11-18T02:28:12;2.45;;;2.25;;
14760;SDS011;7472;45.396;5.272;2023-11-18T02:30:40;5.45;;;2.80;;
14760;SDS011;7472;45.396;5.272;2023-11-18T02:33:10;3.28;;;2.80;;
14760;SDS011;7472;45.396;5.272;2023-11-18T02:35:41;3.92;;;2.38;;
14760;SDS011;7472;45.396;5.272;2023-11-18T02:38:13;3.05;;;2.17;;
14760;SDS011;7472;45.396;5.272;2023-11-18T02:40:42;4.25;;;2.25;;
14760;SDS011;7472;45.396;5.272;2023-11-18T02:43:11;3.40;;;2.40;;
14760;SDS011;7472;45.396;5.272;2023-11-18T02:45:39;3.45;;;2.53;;
14760;SDS011;7472;45.396;5.272;2023-11-18T02:48:06;5.53;;;3.15;;
14760;SDS011;7472;45.396;5.272;2023-11-18T02:50:34;8.05;;;3.45;;
14760;SDS011;7472;45.396;5.272;2023-11-18T02:53:01;8.27;;;3.42;;
14760;SDS011;7472;45.396;5.272;2023-11-18T02:55:29;6.45;;;3.25;;
14760;SDS011;7472;45.396;5.272;2023-11-18T02:57:55;6.38;;;3.60;;
14760;SDS011;7472;45.396;5.272;2023-11-18T03:00:24;3.92;;;2.83;;
14760;SDS011;7472;45.396;5.272;2023-11-18T03:02:53;6.15;;;3.40;;
14760;SDS011;7472;45.396;5.272;2023-11-18T03:05:21;3.92;;;2.95;;
14760;SDS011;7472;45.396;5.272;2023-11-18T03:07:48;4.18;;;2.40;;
14760;SDS011;7472;45.396;5.272;2023-11-18T03:10:18;3.85;;;3.13;;
14760;SDS011;7472;45.396;5.272;2023-11-18T03:12:47;3.72;;;2.83;;
14760;SDS011;7472;45.396;5.272;2023-11-18T03:15:14;4.13;;;2.95;;
14760;SDS011;7472;45.396;5.272;2023-11-18T03:17:44;3.22;;;2.45;;
14760;SDS011;7472;45.396;5.272;2023-11-18T03:20:13;6.45;;;2.50;;
14760;SDS011;7472;45.396;5.272;2023-11-18T03:22:42;2.88;;;2.33;;
14760;SDS011;7472;45.396;5.272;2023-11-18T03:25:10;3.97;;;2.13;;
14760;SDS011;7472;45.396;5.272;2023-11-18T03:27:37;2.35;;;2.15;;
14760;SDS011;7472;45.396;5.272;2023-11-18T03:30:05;2.42;;;1.98;;
14760;SDS011;7472;45.396;5.272;2023-11-18T03:32:33;3.42;;;2.42;;
14760;SDS011;7472;45.396;5.272;2023-11-18T03:35:02;2.45;;;1.92;;
14760;SDS011;7472;45.396;5.272;2023-11-18T03:37:32;2.30;;;2.10;;
14760;SDS011;7472;45.396;5.272;2023-11-18T03:39:59;5.88;;;2.42;;
14760;SDS011;7472;45.396;5.272;2023-11-18T03:42:27;3.08;;;2.17;;
14760;SDS011;7472;45.396;5.272;2023-11-18T03:44:54;3.53;;;1.98;;
14760;SDS011;7472;45.396;5.272;2023-11-18T03:47:22;4.78;;;1.88;;
14760;SDS011;7472;45.396;5.272;2023-11-18T03:49:49;3.60;;;1.83;;
14760;SDS011;7472;45.396;5.272;2023-11-18T03:52:18;4.03;;;1.83;;
14760;SDS011;7472;45.396;5.272;2023-11-18T03:54:45;3.45;;;1.67;;
14760;SDS011;7472;45.396;5.272;2023-11-18T03:57:12;3.88;;;1.60;;
14760;SDS011;7472;45.396;5.272;2023-11-18T03:59:40;2.08;;;1.90;;
14760;SDS011;7472;45.396;5.272;2023-11-18T04:02:07;5.90;;;1.73;;
14760;SDS011;7472;45.396;5.272;2023-11-18T04:04:36;2.65;;;1.52;;
14760;SDS011;7472;45.396;5.272;2023-11-18T04:07:03;1.80;;;1.42;;
14760;SDS011;7472;45.396;5.272;2023-11-18T04:09:33;1.90;;;1.55;;
14760;SDS011;7472;45.396;5.272;2023-11-18T04:12:00;3.95;;;1.90;;
14760;SDS011;7472;45.396;5.272;2023-11-18T04:14:28;3.42;;;1.80;;
14760;SDS011;7472;45.396;5.272;2023-11-18T04:16:55;4.63;;;2.20;;
14760;SDS011;7472;45.396;5.272;2023-11-18T04:19:22;2.80;;;1.75;;
14760;SDS011;7472;45.396;5.272;2023-11-18T04:21:50;2.35;;;1.90;;
14760;SDS011;7472;45.396;5.272;2023-11-18T04:24:17;5.07;;;1.67;;
14760;SDS011;7472;45.396;5.272;2023-11-18T04:26:46;2.17;;;1.65;;
14760;SDS011;7472;45.396;5.272;2023-11-18T04:29:15;2.75;;;1.52;;
14760;SDS011;7472;45.396;5.272;2023-11-18T04:31:43;3.83;;;1.58;;
14760;SDS011;7472;45.396;5.272;2023-11-18T04:34:10;4.43;;;2.25;;
14760;SDS011;7472;45.396;5.272;2023-11-18T04:36:40;3.30;;;2.00;;
14760;SDS011;7472;45.396;5.272;2023-11-18T04:39:08;2.95;;;1.70;;
14760;SDS011;7472;45.396;5.272;2023-11-18T04:41:37;2.80;;;1.83;;
14760;SDS011;7472;45.396;5.272;2023-11-18T04:44:06;3.60;;;2.25;;
14760;SDS011;7472;45.396;5.272;2023-11-18T04:46:33;3.83;;;1.60;;
14760;SDS011;7472;45.396;5.272;2023-11-18T04:49:02;5.40;;;2.13;;
14760;SDS011;7472;45.396;5.272;2023-11-18T04:51:30;4.40;;;2.63;;
14760;SDS011;7472;45.396;5.272;2023-11-18T04:53:58;4.20;;;3.10;;
14760;SDS011;7472;45.396;5.272;2023-11-18T04:56:25;5.50;;;3.42;;
14760;SDS011;7472;45.396;5.272;2023-11-18T04:58:52;3.83;;;2.75;;
14760;SDS011;7472;45.396;5.272;2023-11-18T05:01:21;3.40;;;2.92;;
14760;SDS011;7472;45.396;5.272;2023-11-18T05:03:48;3.03;;;2.70;;
14760;SDS011;7472;45.396;5.272;2023-11-18T05:06:16;3.40;;;2.10;;
14760;SDS011;7472;45.396;5.272;2023-11-18T05:08:45;6.20;;;2.13;;
14760;SDS011;7472;45.396;5.272;2023-11-18T05:11:12;4.47;;;1.88;;
14760;SDS011;7472;45.396;5.272;2023-11-18T05:13:40;2.50;;;1.65;;
14760;SDS011;7472;45.396;5.272;2023-11-18T05:16:07;2.92;;;1.88;;
14760;SDS011;7472;45.396;5.272;2023-11-18T05:18:37;5.05;;;2.60;;
14760;SDS011;7472;45.396;5.272;2023-11-18T05:21:06;3.70;;;2.05;;
14760;SDS011;7472;45.396;5.272;2023-11-18T05:23:33;4.22;;;2.55;;
14760;SDS011;7472;45.396;5.272;2023-11-18T05:26:01;4.47;;;2.00;;
14760;SDS011;7472;45.396;5.272;2023-11-18T05:28:29;3.08;;;1.63;;
14760;SDS011;7472;45.396;5.272;2023-11-18T05:30:57;2.88;;;1.98;;
14760;SDS011;7472;45.396;5.272;2023-11-18T05:33:26;2.90;;;2.30;;
14760;SDS011;7472;45.396;5.272;2023-11-18T05:35:56;4.00;;;2.75;;
14760;SDS011;7472;45.396;5.272;2023-11-18T05:38:23;9.27;;;2.30;;
14760;SDS011;7472;45.396;5.272;2023-11-18T05:40:57;3.22;;;2.40;;
14760;SDS011;7472;45.396;5.272;2023-11-18T05:43:27;2.90;;;2.05;;
14760;SDS011;7472;45.396;5.272;2023-11-18T05:45:55;2.40;;;2.20;;
14760;SDS011;7472;45.396;5.272;2023-11-18T05:48:40;5.82;;;2.35;;
14760;SDS011;7472;45.396;5.272;2023-11-18T05:51:08;1.90;;;1.80;;
14760;SDS011;7472;45.396;5.272;2023-11-18T05:53:39;3.67;;;2.10;;
14760;SDS011;7472;45.396;5.272;2023-11-18T05:56:09;2.95;;;2.08;;
14760;SDS011;7472;45.396;5.272;2023-11-18T05:58:36;2.30;;;1.80;;
14760;SDS011;7472;45.396;5.272;2023-11-18T06:01:04;2.83;;;2.50;;
14760;SDS011;7472;45.396;5.272;2023-11-18T06:03:32;3.20;;;2.10;;
14760;SDS011;7472;45.396;5.272;2023-11-18T06:06:02;3.97;;;2.20;;
14760;SDS011;7472;45.396;5.272;2023-11-18T06:08:33;5.07;;;2.92;;
14760;SDS011;7472;45.396;5.272;2023-11-18T06:11:00;3.53;;;2.25;;
14760;SDS011;7472;45.396;5.272;2023-11-18T06:13:38;3.03;;;2.15;;
14760;SDS011;7472;45.396;5.272;2023-11-18T06:16:08;4.22;;;2.28;;
14760;SDS011;7472;45.396;5.272;2023-11-18T06:18:39;3.30;;;2.47;;
14760;SDS011;7472;45.396;5.272;2023-11-18T06:21:06;2.80;;;2.30;;
14760;SDS011;7472;45.396;5.272;2023-11-18T06:23:35;2.75;;;2.22;;
14760;SDS011;7472;45.396;5.272;2023-11-18T06:26:03;2.72;;;2.35;;
14760;SDS011;7472;45.396;5.272;2023-11-18T06:28:30;5.45;;;2.67;;
14760;SDS011;7472;45.396;5.272;2023-11-18T06:30:58;3.25;;;2.50;;
14760;SDS011;7472;45.396;5.272;2023-11-18T06:33:26;5.20;;;2.60;;
14760;SDS011;7472;45.396;5.272;2023-11-18T06:35:53;2.85;;;2.15;;
14760;SDS011;7472;45.396;5.272;2023-11-18T06:38:21;2.13;;;1.85;;
14760;SDS011;7472;45.396;5.272;2023-11-18T06:40:51;2.55;;;1.85;;
14760;SDS011;7472;45.396;5.272;2023-11-18T06:43:18;2.40;;;2.20;;
14760;SDS011;7472;45.396;5.272;2023-11-18T06:45:46;3.97;;;2.33;;
14760;SDS011;7472;45.396;5.272;2023-11-18T06:48:14;2.83;;;2.40;;
14760;SDS011;7472;45.396;5.272;2023-11-18T06:50:45;5.97;;;3.25;;
14760;SDS011;7472;45.396;5.272;2023-11-18T06:53:12;7.50;;;3.28;;
14760;SDS011;7472;45.396;5.272;2023-11-18T06:55:40;3.95;;;2.28;;
14760;SDS011;7472;45.396;5.272;2023-11-18T06:58:09;2.22;;;2.03;;
14760;SDS011;7472;45.396;5.272;2023-11-18T07:00:38;3.55;;;2.10;;
14760;SDS011;7472;45.396;5.272;2023-11-18T07:03:05;5.90;;;2.60;;
14760;SDS011;7472;45.396;5.272;2023-11-18T07:05:33;2.92;;;2.63;;
14760;SDS011;7472;45.396;5.272;2023-11-18T07:08:00;2.30;;;1.92;;
14760;SDS011;7472;45.396;5.272;2023-11-18T07:10:28;2.35;;;2.05;;
14760;SDS011;7472;45.396;5.272;2023-11-18T07:12:55;2.72;;;2.35;;
14760;SDS011;7472;45.396;5.272;2023-11-18T07:15:26;5.07;;;2.00;;
14760;SDS011;7472;45.396;5.272;2023-11-18T07:17:53;3.95;;;2.05;;
14760;SDS011;7472;45.396;5.272;2023-11-18T07:20:21;4.95;;;2.63;;
14760;SDS011;7472;45.396;5.272;2023-11-18T07:22:48;2.55;;;2.35;;
14760;SDS011;7472;45.396;5.272;2023-11-18T07:25:15;6.43;;;2.40;;
14760;SDS011;7472;45.396;5.272;2023-11-18T07:27:42;2.65;;;2.20;;
14760;SDS011;7472;45.396;5.272;2023-11-18T07:30:10;1.90;;;1.80;;
14760;SDS011;7472;45.396;5.272;2023-11-18T07:32:40;3.10;;;2.20;;
14760;SDS011;7472;45.396;5.272;2023-11-18T07:35:08;3.90;;;2.50;;
14760;SDS011;7472;45.396;5.272;2023-11-18T07:37:37;2.20;;;2.00;;
14760;SDS011;7472;45.396;5.272;2023-11-18T07:40:04;3.03;;;2.20;;
14760;SDS011;7472;45.396;5.272;2023-11-18T07:42:33;3.88;;;1.92;;
14760;SDS011;7472;45.396;5.272;2023-11-18T07:45:00;4.68;;;2.83;;
14760;SDS011;7472;45.396;5.272;2023-11-18T07:47:29;4.70;;;3.20;;
14760;SDS011;7472;45.396;5.272;2023-11-18T07:49:59;6.43;;;3.15;;
14760;SDS011;7472;45.396;5.272;2023-11-18T07:52:29;4.95;;;3.10;;
14760;SDS011;7472;45.396;5.272;2023-11-18T07:54:56;2.95;;;2.60;;
14760;SDS011;7472;45.396;5.272;2023-11-18T07:57:24;2.90;;;2.67;;
14760;SDS011;7472;45.396;5.272;2023-11-18T07:59:52;3.22;;;2.50;;
14760;SDS011;7472;45.396;5.272;2023-11-18T08:02:20;6.45;;;3.58;;
14760;SDS011;7472;45.396;5.272;2023-11-18T08:04:48;4.28;;;3.08;;
14760;SDS011;7472;45.396;5.272;2023-11-18T08:07:16;4.40;;;3.10;;
14760;SDS011;7472;45.396;5.272;2023-11-18T08:09:44;4.75;;;3.22;;
14760;SDS011;7472;45.396;5.272;2023-11-18T08:12:11;4.00;;;3.22;;
14760;SDS011;7472;45.396;5.272;2023-11-18T08:14:39;3.92;;;3.47;;
14760;SDS011;7472;45.396;5.272;2023-11-18T08:17:07;4.45;;;3.00;;
14760;SDS011;7472;45.396;5.272;2023-11-18T08:19:34;5.15;;;3.63;;
14760;SDS011;7472;45.396;5.272;2023-11-18T08:22:02;6.15;;;3.63;;
14760;SDS011;7472;45.396;5.272;2023-11-18T08:24:32;5.15;;;3.50;;
14760;SDS011;7472;45.396;5.272;2023-11-18T08:26:59;4.07;;;3.40;;
14760;SDS011;7472;45.396;5.272;2023-11-18T08:29:28;6.18;;;3.30;;
14760;SDS011;7472;45.396;5.272;2023-11-18T08:31:57;6.72;;;4.38;;
14760;SDS011;7472;45.396;5.272;2023-11-18T08:34:24;4.00;;;3.05;;
14760;SDS011;7472;45.396;5.272;2023-11-18T08:36:52;6.05;;;3.25;;
14760;SDS011;7472;45.396;5.272;2023-11-18T08:39:19;5.03;;;3.78;;
14760;SDS011;7472;45.396;5.272;2023-11-18T08:41:52;4.30;;;3.47;;
14760;SDS011;7472;45.396;5.272;2023-11-18T08:44:19;2.95;;;2.72;;
14760;SDS011;7472;45.396;5.272;2023-11-18T08:46:47;3.63;;;2.20;;
14760;SDS011;7472;45.396;5.272;2023-11-18T08:49:17;3.72;;;2.15;;
14760;SDS011;7472;45.396;5.272;2023-11-18T08:51:46;2.25;;;1.80;;
14760;SDS011;7472;45.396;5.272;2023-11-18T08:54:15;4.07;;;2.80;;
14760;SDS011;7472;45.396;5.272;2023-11-18T08:56:51;3.38;;;2.75;;
14760;SDS011;7472;45.396;5.272;2023-11-18T08:59:19;2.55;;;2.35;;
14760;SDS011;7472;45.396;5.272;2023-11-18T09:01:50;3.65;;;2.13;;
14760;SDS011;7472;45.396;5.272;2023-11-18T09:04:21;2.53;;;2.13;;
14760;SDS011;7472;45.396;5.272;2023-11-18T09:06:48;4.72;;;2.80;;
14760;SDS011;7472;45.396;5.272;2023-11-18T09:09:19;3.60;;;2.72;;
14760;SDS011;7472;45.396;5.272;2023-11-18T09:11:53;3.45;;;2.40;;
14760;SDS011;7472;45.396;5.272;2023-11-18T09:14:21;3.00;;;2.60;;
14760;SDS011;7472;45.396;5.272;2023-11-18T09:16:49;3.30;;;2.15;;
14760;SDS011;7472;45.396;5.272;2023-11-18T09:19:17;3.25;;;2.95;;
14760;SDS011;7472;45.396;5.272;2023-11-18T09:21:46;2.45;;;2.25;;
14760;SDS011;7472;45.396;5.272;2023-11-18T09:24:13;3.78;;;2.35;;
14760;SDS011;7472;45.396;5.272;2023-11-18T09:26:44;3.47;;;2.72;;
14760;SDS011;7472;45.396;5.272;2023-11-18T09:29:16;3.05;;;2.22;;
14760;SDS011;7472;45.396;5.272;2023-11-18T09:31:45;2.80;;;2.53;;
14760;SDS011;7472;45.396;5.272;2023-11-18T09:34:14;4.22;;;2.55;;
14760;SDS011;7472;45.396;5.272;2023-11-18T09:36:42;3.08;;;2.60;;
14760;SDS011;7472;45.396;5.272;2023-11-18T09:39:09;2.15;;;1.90;;
14760;SDS011;7472;45.396;5.272;2023-11-18T09:41:54;3.33;;;2.38;;
14760;SDS011;7472;45.396;5.272;2023-11-18T09:44:23;2.17;;;1.92;;
14760;SDS011;7472;45.396;5.272;2023-11-18T09:46:52;5.53;;;2.20;;
14760;SDS011;7472;45.396;5.272;2023-11-18T09:49:29;3.10;;;1.95;;
14760;SDS011;7472;45.396;5.272;2023-11-18T09:52:04;3.20;;;2.30;;
14760;SDS011;7472;45.396;5.272;2023-11-18T09:54:33;4.45;;;1.92;;
14760;SDS011;7472;45.396;5.272;2023-11-18T09:57:03;1.77;;;1.50;;
14760;SDS011;7472;45.396;5.272;2023-11-18T09:59:39;2.30;;;1.98;;
14760;SDS011;7472;45.396;5.272;2023-11-18T10:02:10;2.45;;;2.08;;
14760;SDS011;7472;45.396;5.272;2023-11-18T10:04:37;4.07;;;2.55;;
14760;SDS011;7472;45.396;5.272;2023-11-18T10:07:05;3.00;;;2.05;;
14760;SDS011;7472;45.396;5.272;2023-11-18T10:09:35;2.17;;;1.67;;
14760;SDS011;7472;45.396;5.272;2023-11-18T10:12:04;2.72;;;2.20;;
14760;SDS011;7472;45.396;5.272;2023-11-18T10:14:32;2.67;;;1.90;;
14760;SDS011;7472;45.396;5.272;2023-11-18T10:17:04;2.03;;;1.65;;
14760;SDS011;7472;45.396;5.272;2023-11-18T10:22:24;2.00;;;1.55;;
14760;SDS011;7472;45.396;5.272;2023-11-18T10:24:52;1.88;;;1.73;;
14760;SDS011;7472;45.396;5.272;2023-11-18T10:27:21;2.95;;;2.05;;
14760;SDS011;7472;45.396;5.272;2023-11-18T10:29:50;2.58;;;1.52;;
14760;SDS011;7472;45.396;5.272;2023-11-18T10:32:18;5.93;;;2.13;;
14760;SDS011;7472;45.396;5.272;2023-11-18T10:34:47;2.25;;;1.75;;
14760;SDS011;7472;45.396;5.272;2023-11-18T10:37:16;2.35;;;1.95;;
14760;SDS011;7472;45.396;5.272;2023-11-18T10:39:46;1.90;;;1.38;;
14760;SDS011;7472;45.396;5.272;2023-11-18T10:42:16;2.65;;;1.60;;
14760;SDS011;7472;45.396;5.272;2023-11-18T10:44:56;3.83;;;2.10;;
14760;SDS011;7472;45.396;5.272;2023-11-18T10:47:25;2.03;;;1.70;;
14760;SDS011;7472;45.396;5.272;2023-11-18T10:49:54;2.35;;;1.92;;
14760;SDS011;7472;45.396;5.272;2023-11-18T10:52:22;4.28;;;2.10;;
14760;SDS011;7472;45.396;5.272;2023-11-18T10:54:51;2.08;;;1.70;;
14760;SDS011;7472;45.396;5.272;2023-11-18T10:57:19;2.13;;;1.85;;
14760;SDS011;7472;45.396;5.272;2023-11-18T10:59:59;2.97;;;1.73;;
14760;SDS011;7472;45.396;5.272;2023-11-18T11:02:31;2.15;;;1.73;;
14760;SDS011;7472;45.396;5.272;2023-11-18T11:05:04;2.20;;;2.00;;
14760;SDS011;7472;45.396;5.272;2023-11-18T11:07:32;5.35;;;3.15;;
14760;SDS011;7472;45.396;5.272;2023-11-18T11:10:00;3.83;;;2.20;;
14760;SDS011;7472;45.396;5.272;2023-11-18T11:12:31;3.22;;;2.42;;
14760;SDS011;7472;45.396;5.272;2023-11-18T11:15:01;2.00;;;1.70;;
14760;SDS011;7472;45.396;5.272;2023-11-18T11:17:34;5.30;;;2.22;;
14760;SDS011;7472;45.396;5.272;2023-11-18T11:20:05;2.50;;;2.03;;
14760;SDS011;7472;45.396;5.272;2023-11-18T11:22:44;2.67;;;2.22;;
14760;SDS011;7472;45.396;5.272;2023-11-18T11:25:14;2.55;;;1.50;;
14760;SDS011;7472;45.396;5.272;2023-11-18T11:27:50;1.60;;;1.40;;
14760;SDS011;7472;45.396;5.272;2023-11-18T11:30:27;2.97;;;2.28;;
14760;SDS011;7472;45.396;5.272;2023-11-18T11:33:01;2.72;;;2.25;;
14760;SDS011;7472;45.396;5.272;2023-11-18T11:35:35;3.50;;;2.40;;
14760;SDS011;7472;45.396;5.272;2023-11-18T11:38:04;3.35;;;2.00;;
14760;SDS011;7472;45.396;5.272;2023-11-18T11:40:35;3.50;;;2.60;;
14760;SDS011;7472;45.396;5.272;2023-11-18T11:43:04;2.90;;;2.17;;
14760;SDS011;7472;45.396;5.272;2023-11-18T11:45:34;4.00;;;2.85;;
14760;SDS011;7472;45.396;5.272;2023-11-18T11:48:03;5.53;;;2.80;;
14760;SDS011;7472;45.396;5.272;2023-11-18T11:50:47;3.50;;;3.17;;
14760;SDS011;7472;45.396;5.272;2023-11-18T11:53:16;4.43;;;3.40;;
14760;SDS011;7472;45.396;5.272;2023-11-18T11:55:49;5.60;;;4.00;;
14760;SDS011;7472;45.396;5.272;2023-11-18T11:58:25;4.40;;;3.17;;
14760;SDS011;7472;45.396;5.272;2023-11-18T12:00:52;3.95;;;3.28;;
14760;SDS011;7472;45.396;5.272;2023-11-18T12:03:22;4.85;;;3.45;;
14760;SDS011;7472;45.396;5.272;2023-11-18T12:05:54;3.92;;;3.50;;
14760;SDS011;7472;45.396;5.272;2023-11-18T12:08:34;5.72;;;4.55;;
14760;SDS011;7472;45.396;5.272;2023-11-18T12:11:04;6.00;;;4.15;;
14760;SDS011;7472;45.396;5.272;2023-11-18T12:13:35;5.43;;;3.00;;
14760;SDS011;7472;45.396;5.272;2023-11-18T12:16:05;5.40;;;3.83;;
14760;SDS011;7472;45.396;5.272;2023-11-18T12:18:36;4.78;;;3.33;;
14760;SDS011;7472;45.396;5.272;2023-11-18T12:21:04;6.63;;;3.10;;
14760;SDS011;7472;45.396;5.272;2023-11-18T12:23:36;5.32;;;3.10;;
14760;SDS011;7472;45.396;5.272;2023-11-18T12:26:37;3.92;;;3.05;;
14760;SDS011;7472;45.396;5.272;2023-11-18T12:29:05;3.88;;;3.15;;
14760;SDS011;7472;45.396;5.272;2023-11-18T12:31:52;3.58;;;2.88;;
14760;SDS011;7472;45.396;5.272;2023-11-18T12:34:21;6.03;;;2.80;;
14760;SDS011;7472;45.396;5.272;2023-11-18T12:40:00;3.50;;;2.55;;
14760;SDS011;7472;45.396;5.272;2023-11-18T12:42:48;5.05;;;2.95;;
14760;SDS011;7472;45.396;5.272;2023-11-18T12:48:20;2.72;;;2.08;;
14760;SDS011;7472;45.396;5.272;2023-11-18T12:50:54;2.47;;;1.98;;
14760;SDS011;7472;45.396;5.272;2023-11-18T12:53:21;2.47;;;2.22;;
14760;SDS011;7472;45.396;5.272;2023-11-18T12:55:50;1.52;;;1.42;;
14760;SDS011;7472;45.396;5.272;2023-11-18T12:58:19;1.30;;;1.20;;
14760;SDS011;7472;45.396;5.272;2023-11-18T13:00:48;3.53;;;2.03;;
14760;SDS011;7472;45.396;5.272;2023-11-18T13:03:15;3.22;;;2.30;;
14760;SDS011;7472;45.396;5.272;2023-11-18T13:05:44;3.83;;;2.88;;
14760;SDS011;7472;45.396;5.272;2023-11-18T13:08:13;3.92;;;2.22;;
14760;SDS011;7472;45.396;5.272;2023-11-18T13:10:41;4.85;;;2.70;;
14760;SDS011;7472;45.396;5.272;2023-11-18T13:13:10;3.33;;;2.20;;
14760;SDS011;7472;45.396;5.272;2023-11-18T13:15:42;3.58;;;2.60;;
14760;SDS011;7472;45.396;5.272;2023-11-18T13:18:10;3.47;;;2.78;;
14760;SDS011;7472;45.396;5.272;2023-11-18T13:20:37;3.42;;;2.45;;
14760;SDS011;7472;45.396;5.272;2023-11-18T13:23:08;3.20;;;2.90;;
14760;SDS011;7472;45.396;5.272;2023-11-18T13:25:37;3.05;;;2.67;;
14760;SDS011;7472;45.396;5.272;2023-11-18T13:28:07;4.35;;;3.22;;
14760;SDS011;7472;45.396;5.272;2023-11-18T13:30:36;3.67;;;2.92;;
14760;SDS011;7472;45.396;5.272;2023-11-18T13:33:04;2.25;;;2.05;;
14760;SDS011;7472;45.396;5.272;2023-11-18T13:35:32;3.05;;;2.10;;
14760;SDS011;7472;45.396;5.272;2023-11-18T13:38:00;2.88;;;2.33;;
14760;SDS011;7472;45.396;5.272;2023-11-18T13:40:42;2.40;;;2.20;;
14760;SDS011;7472;45.396;5.272;2023-11-18T13:43:09;2.72;;;2.40;;
14760;SDS011;7472;45.396;5.272;2023-11-18T13:45:37;2.35;;;2.15;;
14760;SDS011;7472;45.396;5.272;2023-11-18T13:48:05;3.85;;;2.47;;
14760;SDS011;7472;45.396;5.272;2023-11-18T13:50:34;2.42;;;1.98;;
14760;SDS011;7472;45.396;5.272;2023-11-18T13:53:02;2.85;;;2.08;;
14760;SDS011;7472;45.396;5.272;2023-11-18T13:55:31;4.65;;;2.67;;
14760;SDS011;7472;45.396;5.272;2023-11-18T13:57:59;3.03;;;1.90;;
14760;SDS011;7472;45.396;5.272;2023-11-18T14:00:30;3.28;;;2.38;;
14760;SDS011;7472;45.396;5.272;2023-11-18T14:02:58;2.85;;;2.08;;
14760;SDS011;7472;45.396;5.272;2023-11-18T14:05:25;3.85;;;1.90;;
14760;SDS011;7472;45.396;5.272;2023-11-18T14:07:53;2.83;;;2.47;;
14760;SDS011;7472;45.396;5.272;2023-11-18T14:10:21;2.92;;;2.33;;
14760;SDS011;7472;45.396;5.272;2023-11-18T14:13:01;3.70;;;2.45;;
14760;SDS011;7472;45.396;5.272;2023-11-18T14:15:31;2.25;;;1.95;;
14760;SDS011;7472;45.396;5.272;2023-11-18T14:18:00;3.50;;;2.10;;
14760;SDS011;7472;45.396;5.272;2023-11-18T14:20:27;4.10;;;2.30;;
14760;SDS011;7472;45.396;5.272;2023-11-18T14:22:56;5.00;;;2.55;;
14760;SDS011;7472;45.396;5.272;2023-11-18T14:25:24;3.53;;;2.75;;
14760;SDS011;7472;45.396;5.272;2023-11-18T14:27:52;4.90;;;2.60;;
14760;SDS011;7472;45.396;5.272;2023-11-18T14:30:22;6.95;;;2.85;;
14760;SDS011;7472;45.396;5.272;2023-11-18T14:32:50;2.17;;;1.98;;
14760;SDS011;7472;45.396;5.272;2023-11-18T14:35:17;4.30;;;2.42;;
14760;SDS011;7472;45.396;5.272;2023-11-18T14:37:45;2.67;;;1.90;;
14760;SDS011;7472;45.396;5.272;2023-11-18T14:40:13;2.17;;;1.63;;
14760;SDS011;7472;45.396;5.272;2023-11-18T14:42:41;1.60;;;1.40;;
14760;SDS011;7472;45.396;5.272;2023-11-18T14:45:10;1.50;;;1.40;;
14760;SDS011;7472;45.396;5.272;2023-11-18T14:47:39;2.08;;;1.50;;
14760;SDS011;7472;45.396;5.272;2023-11-18T14:50:07;4.75;;;1.50;;
14760;SDS011;7472;45.396;5.272;2023-11-18T14:52:42;2.33;;;1.20;;
14760;SDS011;7472;45.396;5.272;2023-11-18T14:55:10;1.60;;;1.25;;
14760;SDS011;7472;45.396;5.272;2023-11-18T14:57:38;1.73;;;1.30;;
14760;SDS011;7472;45.396;5.272;2023-11-18T15:00:06;2.83;;;1.35;;
14760;SDS011;7472;45.396;5.272;2023-11-18T15:02:34;2.88;;;1.70;;
14760;SDS011;7472;45.396;5.272;2023-11-18T15:05:04;2.78;;;1.70;;
14760;SDS011;7472;45.396;5.272;2023-11-18T15:07:34;3.75;;;2.10;;
14760;SDS011;7472;45.396;5.272;2023-11-18T15:10:03;2.00;;;1.58;;
14760;SDS011;7472;45.396;5.272;2023-11-18T15:12:31;1.75;;;1.52;;
14760;SDS011;7472;45.396;5.272;2023-11-18T15:14:59;1.90;;;1.67;;
14760;SDS011;7472;45.396;5.272;2023-11-18T15:17:28;2.17;;;1.70;;
14760;SDS011;7472;45.396;5.272;2023-11-18T15:19:55;1.50;;;1.38;;